Time;durP1;ratioP1;P1;durP2;ratioP2;P2;SDS_P1;SDS_P2;PMS_P1;PMS_P2;Temp;Humidity;BMP_temperature;BMP_pressure;BME280_temperature;BME280_humidity;BME280_pressure;Samples;Min_cycle;Max_cycle;Signal;HPM_P1;HPM_P2
2022/03/01 00:00:19;;;;;;;9.85;2.63;;;;;;;7.12;91.44;101897.94;5089111;28;20597;-90
2022/03/01 00:02:46;;;;;;;6.68;2.20;;;;;;;6.70;92.00;101833.03;5090179;28;20044;-90
2022/03/01 00:05:13;;;;;;;8.20;2.88;;;;;;;6.95;91.34;101898.88;5090181;28;20059;-89
2022/03/01 00:07:40;;;;;;;7.15;2.03;;;;;;;6.63;91.54;101880.78;5089624;28;20052;-87
2022/03/01 00:10:08;;;;;;;5.43;2.03;;;;;;;6.78;92.20;101885.97;5089363;28;20087;-89
2022/03/01 00:12:35;;;;;;;7.95;2.00;;;;;;;6.73;92.86;101885.09;5089643;28;20048;-90
2022/03/01 00:15:03;;;;;;;9.43;2.13;;;;;;;6.49;94.40;101891.22;5106431;28;20119;-89
2022/03/01 00:17:30;;;;;;;5.97;2.15;;;;;;;6.37;93.88;101857.44;5092094;28;20056;-89
2022/03/01 00:19:57;;;;;;;6.63;2.13;;;;;;;6.66;92.70;101893.81;5091175;28;20051;-89
2022/03/01 00:22:24;;;;;;;6.78;2.00;;;;;;;6.49;92.58;101870.41;5089778;28;20405;-89
2022/03/01 00:24:51;;;;;;;12.30;3.45;;;;;;;6.40;95.83;101902.50;5091897;28;20062;-89
2022/03/01 00:27:18;;;;;;;7.70;2.40;;;;;;;5.84;95.43;101877.38;5094908;28;20048;-90
2022/03/01 00:29:45;;;;;;;8.95;2.90;;;;;;;5.86;96.17;101915.53;5094188;28;20048;-89
2022/03/01 00:32:11;;;;;;;10.00;2.83;;;;;;;5.58;98.47;101880.84;5091971;28;20052;-89
2022/03/01 00:34:38;;;;;;;11.15;2.97;;;;;;;5.67;100.00;101885.19;5094870;28;20387;-90
2022/03/01 00:37:05;;;;;;;8.13;2.22;;;;;;;5.83;100.00;101907.72;5094477;28;20048;-90
2022/03/01 00:39:32;;;;;;;9.98;2.58;;;;;;;5.75;99.85;101913.75;5094136;28;20047;-90
2022/03/01 00:41:59;;;;;;;8.00;2.58;;;;;;;5.47;100.00;101900.72;5093608;28;20062;-89
2022/03/01 00:44:26;;;;;;;6.10;1.92;;;;;;;5.89;100.00;101946.69;5111011;28;20128;-90
2022/03/01 00:46:53;;;;;;;7.10;1.73;;;;;;;5.88;99.71;101929.38;5094711;28;20478;-90
2022/03/01 00:49:20;;;;;;;5.63;1.88;;;;;;;5.73;100.00;101916.34;5091508;28;20139;-90
2022/03/01 00:51:46;;;;;;;4.95;1.50;;;;;;;5.65;100.00;101926.75;5093244;28;20063;-90
2022/03/01 00:54:13;;;;;;;4.85;1.80;;;;;;;5.73;100.00;101939.75;5094757;28;20067;-90
2022/03/01 00:56:41;;;;;;;5.57;1.73;;;;;;;5.92;100.00;101932.84;5093177;28;20382;-90
2022/03/01 00:59:08;;;;;;;7.13;2.28;;;;;;;6.00;99.15;101957.16;5090640;28;20050;-90
2022/03/01 01:01:35;;;;;;;9.48;2.20;;;;;;;5.83;98.02;101932.84;5092889;28;20051;-90
2022/03/01 01:04:02;;;;;;;6.40;1.60;;;;;;;5.65;99.92;101916.34;5094511;28;20087;-90
2022/03/01 01:06:29;;;;;;;6.82;2.38;;;;;;;5.69;100.00;101935.41;5094865;28;20070;-90
2022/03/01 01:08:56;;;;;;;6.50;1.90;;;;;;;5.79;100.00;101963.16;5094007;28;20130;-91
2022/03/01 01:11:23;;;;;;;8.27;1.90;;;;;;;5.46;100.00;101925.84;5092997;28;20058;-89
2022/03/01 01:13:50;;;;;;;5.82;2.10;;;;;;;5.41;100.00;101924.94;5093669;28;20374;-88
2022/03/01 01:16:18;;;;;;;5.20;1.70;;;;;;;5.58;100.00;101970.88;5093776;28;20126;-89
2022/03/01 01:18:45;;;;;;;8.90;1.80;;;;;;;5.53;100.00;101949.25;5092977;28;20048;-90
2022/03/01 01:21:13;;;;;;;6.30;1.58;;;;;;;5.25;100.00;101905.00;5092358;28;20396;-90
2022/03/01 01:23:41;;;;;;;6.07;1.90;;;;;;;5.61;100.00;101964.00;5093628;28;20056;-89
2022/03/01 01:26:09;;;;;;;6.13;2.10;;;;;;;5.80;100.00;101990.00;5094212;28;20497;-90
2022/03/01 01:28:36;;;;;;;9.40;1.90;;;;;;;5.71;100.00;101977.88;5099772;28;20048;-89
2022/03/01 01:31:04;;;;;;;5.25;1.63;;;;;;;5.83;100.00;101980.50;5089604;28;20040;-88
2022/03/01 01:33:31;;;;;;;9.63;1.83;;;;;;;5.87;100.00;101978.75;5110209;28;20136;-86
2022/03/01 01:35:58;;;;;;;7.72;1.70;;;;;;;5.97;100.00;101997.88;5109649;28;20128;-89
2022/03/01 01:38:25;;;;;;;7.72;1.67;;;;;;;6.02;100.00;101988.34;5094184;28;20054;-89
2022/03/01 01:40:52;;;;;;;5.60;1.60;;;;;;;6.02;100.00;101980.53;5092216;28;20044;-89
2022/03/01 01:43:18;;;;;;;7.07;1.67;;;;;;;6.01;100.00;101991.81;5092863;28;20048;-89
2022/03/01 01:45:45;;;;;;;7.18;1.70;;;;;;;5.98;99.89;102004.81;5093162;28;20047;-90
2022/03/01 01:48:13;;;;;;;4.38;1.75;;;;;;;5.85;99.77;101996.09;5093360;28;20055;-89
2022/03/01 01:50:41;;;;;;;6.85;1.77;;;;;;;5.90;98.98;102023.81;5089826;28;20052;-89
2022/03/01 01:53:08;;;;;;;12.48;1.60;;;;;;;5.69;98.22;102008.19;5094722;28;20083;-89
2022/03/01 01:55:34;;;;;;;7.22;1.60;;;;;;;5.59;100.00;102014.19;5110376;28;20497;-89
2022/03/01 01:58:01;;;;;;;9.75;2.30;;;;;;;5.73;100.00;102003.84;5106145;28;20186;-89
2022/03/01 02:00:31;;;;;;;9.27;2.22;;;;;;;5.59;100.00;102009.88;5086016;28;20048;-88
2022/03/01 02:02:58;;;;;;;5.40;1.85;;;;;;;5.89;100.00;102013.41;5093057;28;20132;-89
2022/03/01 02:05:27;;;;;;;6.85;2.10;;;;;;;5.88;100.00;102015.16;5093287;28;20055;-89
2022/03/01 02:07:54;;;;;;;4.78;1.50;;;;;;;6.16;100.00;102027.38;5093030;28;20051;-87
2022/03/01 02:10:21;;;;;;;5.97;1.80;;;;;;;5.86;100.00;102006.50;5091514;28;20562;-89
2022/03/01 02:12:48;;;;;;;6.28;1.70;;;;;;;5.94;99.91;102023.84;5092298;28;20076;-89
2022/03/01 02:15:15;;;;;;;8.82;2.13;;;;;;;5.91;97.93;102029.88;5092118;28;20046;-90
2022/03/01 02:17:43;;;;;;;5.18;1.50;;;;;;;5.86;98.56;102048.09;5093739;28;20533;-90
2022/03/01 02:20:14;;;;;;;6.32;1.67;;;;;;;5.66;99.44;102063.59;5091829;28;20120;-89
2022/03/01 02:22:40;;;;;;;9.68;1.70;;;;;;;5.46;97.13;102047.06;5092658;28;20054;-89
2022/03/01 02:25:08;;;;;;;8.88;1.92;;;;;;;5.33;100.00;102043.56;5092294;28;20055;-90
2022/03/01 02:27:37;;;;;;;12.07;2.10;;;;;;;5.39;100.00;102029.72;5082596;28;20059;-89
2022/03/01 02:30:06;;;;;;;5.20;1.67;;;;;;;5.41;100.00;102018.47;5090222;28;20054;-90
2022/03/01 02:32:35;;;;;;;6.97;2.00;;;;;;;5.73;99.73;102069.69;5091705;28;20127;-90
2022/03/01 02:35:03;;;;;;;5.75;1.70;;;;;;;5.23;100.00;102001.06;5092028;28;20435;-88
2022/03/01 02:37:32;;;;;;;6.97;1.75;;;;;;;4.98;100.00;101979.31;5108476;28;20076;-90
2022/03/01 02:40:00;;;;;;;9.32;2.15;;;;;;;5.13;100.00;102027.84;5092124;28;20139;-90
2022/03/01 02:42:30;;;;;;;5.00;1.60;;;;;;;4.83;100.00;102025.91;5075929;28;20048;-90
2022/03/01 02:44:58;;;;;;;9.48;2.40;;;;;;;4.93;100.00;102069.25;5091811;28;20049;-90
2022/03/01 02:47:25;;;;;;;8.48;1.95;;;;;;;4.55;100.00;102021.41;5092030;28;20054;-90
2022/03/01 02:49:52;;;;;;;7.03;1.50;;;;;;;4.54;100.00;102011.88;5090708;28;20048;-91
2022/03/01 02:52:19;;;;;;;6.47;1.65;;;;;;;4.95;100.00;102026.00;5092386;28;20052;-89
2022/03/01 02:54:46;;;;;;;7.60;1.60;;;;;;;5.18;100.00;102040.84;5108710;28;20393;-89
2022/03/01 02:57:13;;;;;;;10.15;1.90;;;;;;;5.21;100.00;102049.53;5091853;28;20080;-90
2022/03/01 02:59:39;;;;;;;8.93;2.00;;;;;;;5.44;100.00;102067.84;5089812;28;20040;-89
2022/03/01 03:02:07;;;;;;;15.70;2.70;;;;;;;4.80;100.00;102094.25;5081478;28;20393;-90
2022/03/01 03:04:34;;;;;;;15.85;3.25;;;;;;;4.45;100.00;102091.34;5091517;28;20051;-89
2022/03/01 03:07:00;;;;;;;9.85;2.53;;;;;;;4.53;100.00;102077.59;5092737;28;21035;-90
2022/03/01 03:09:27;;;;;;;9.15;2.10;;;;;;;4.36;100.00;102022.97;5091233;28;20062;-90
2022/03/01 03:11:54;;;;;;;7.85;1.85;;;;;;;4.55;100.00;102030.91;5090475;28;20054;-90
2022/03/01 03:14:21;;;;;;;5.95;1.67;;;;;;;4.53;100.00;102098.34;5092351;28;20063;-90
2022/03/01 03:16:48;;;;;;;5.75;1.63;;;;;;;4.87;100.00;102114.22;5092280;28;20051;-89
2022/03/01 03:19:15;;;;;;;5.70;1.75;;;;;;;4.89;100.00;102098.66;5090722;28;20506;-89
2022/03/01 03:21:46;;;;;;;8.35;2.45;;;;;;;4.96;100.00;102123.78;5072696;28;20056;-89
2022/03/01 03:24:13;;;;;;;7.72;2.25;;;;;;;5.03;100.00;102101.31;5078684;28;20044;-89
2022/03/01 03:26:41;;;;;;;5.68;1.85;;;;;;;4.92;100.00;102130.69;5091582;28;20409;-89
2022/03/01 03:29:08;;;;;;;7.90;1.80;;;;;;;4.71;100.00;102117.50;5090771;28;20048;-90
2022/03/01 03:31:41;;;;;;;7.13;1.88;;;;;;;4.82;99.11;102117.63;5090786;28;20477;-90
2022/03/01 03:34:10;;;;;;;7.18;2.00;;;;;;;4.45;100.00;102096.53;5108245;28;20052;-90
2022/03/01 03:36:39;;;;;;;6.75;1.80;;;;;;;4.47;100.00;102128.53;5091562;28;20068;-90
2022/03/01 03:39:08;;;;;;;5.53;1.92;;;;;;;3.89;100.00;102088.16;5092200;28;20060;-90
2022/03/01 03:41:35;;;;;;;11.85;2.10;;;;;;;4.41;100.00;102103.41;5090333;28;20140;-90
2022/03/01 03:44:03;;;;;;;6.63;1.73;;;;;;;4.47;100.00;102125.94;5091260;28;20052;-90
2022/03/01 03:46:30;;;;;;;10.13;1.75;;;;;;;4.26;100.00;102100.66;5090886;28;20040;-89
2022/03/01 03:48:57;;;;;;;4.78;1.48;;;;;;;4.53;100.00;102107.84;5090684;28;20458;-90
2022/03/01 03:51:23;;;;;;;6.43;1.75;;;;;;;4.11;100.00;102127.31;5090134;28;20445;-91
2022/03/01 03:53:50;;;;;;;14.85;3.60;;;;;;;4.11;100.00;102116.94;5091192;28;20070;-90
2022/03/01 03:56:17;;;;;;;7.38;1.98;;;;;;;4.09;100.00;102136.75;5091389;28;20040;-90
2022/03/01 03:58:45;;;;;;;10.65;2.03;;;;;;;4.40;100.00;102150.09;5090060;28;20125;-91
2022/03/01 04:01:11;;;;;;;11.15;2.20;;;;;;;4.07;100.00;102138.47;5091184;28;20072;-89
2022/03/01 04:03:39;;;;;;;7.07;2.28;;;;;;;4.05;100.00;102147.94;5090994;28;20052;-89
2022/03/01 04:06:06;;;;;;;6.60;1.98;;;;;;;4.19;100.00;102151.56;5091767;28;20048;-90
2022/03/01 04:08:34;;;;;;;7.10;1.98;;;;;;;4.18;100.00;102153.31;5090709;28;20052;-90
2022/03/01 04:11:01;;;;;;;6.25;1.50;;;;;;;4.13;100.00;102136.81;5089503;28;20052;-90
2022/03/01 04:13:28;;;;;;;3.85;1.52;;;;;;;4.34;100.00;102151.75;5091543;28;20409;-90
2022/03/01 04:15:54;;;;;;;6.15;1.70;;;;;;;4.21;100.00;102142.09;5092129;28;20434;-90
2022/03/01 04:18:21;;;;;;;4.88;1.80;;;;;;;4.41;100.00;102139.72;5091995;28;20058;-90
2022/03/01 04:20:48;;;;;;;5.18;1.50;;;;;;;4.27;100.00;102159.47;5090135;28;20040;-90
2022/03/01 04:23:15;;;;;;;9.77;1.95;;;;;;;4.49;100.00;102156.22;5091196;28;20062;-90
2022/03/01 04:25:42;;;;;;;8.68;2.25;;;;;;;4.24;100.00;102149.91;5090944;28;20044;-90
2022/03/01 04:28:11;;;;;;;6.72;2.53;;;;;;;4.41;100.00;102164.78;5090794;28;20044;-89
2022/03/01 04:30:38;;;;;;;11.95;1.90;;;;;;;4.01;100.00;102154.81;5090585;28;20044;-90
2022/03/01 04:33:05;;;;;;;10.02;2.17;;;;;;;3.70;100.00;102136.31;5091715;28;20056;-91
2022/03/01 04:35:32;;;;;;;6.25;1.77;;;;;;;3.98;100.00;102170.31;5107815;28;20137;-91
2022/03/01 04:37:59;;;;;;;5.85;1.70;;;;;;;4.22;100.00;102176.69;5091963;28;20056;-91
2022/03/01 04:40:25;;;;;;;6.97;1.80;;;;;;;3.90;100.00;102156.41;5089253;28;20048;-91
2022/03/01 04:42:52;;;;;;;7.43;2.35;;;;;;;4.02;100.00;102143.63;5090320;28;20416;-91
2022/03/01 04:45:19;;;;;;;5.28;1.90;;;;;;;3.96;100.00;102172.88;5106869;28;20048;-90
2022/03/01 04:47:46;;;;;;;6.25;2.10;;;;;;;3.90;100.00;102177.16;5089889;28;20056;-91
2022/03/01 04:50:13;;;;;;;6.45;2.00;;;;;;;3.78;100.00;102172.66;5089466;28;20101;-90
2022/03/01 04:52:40;;;;;;;8.50;1.70;;;;;;;3.57;100.00;102161.16;5090819;28;20139;-90
2022/03/01 04:55:08;;;;;;;9.35;1.85;;;;;;;3.56;100.00;102153.34;5090047;28;20114;-90
2022/03/01 04:57:35;;;;;;;6.05;1.63;;;;;;;3.75;100.00;102173.50;5090344;28;20058;-90
2022/03/01 05:00:10;;;;;;;7.32;1.83;;;;;;;3.65;100.00;102186.28;5089983;28;20047;-90
2022/03/01 05:02:39;;;;;;;7.55;1.67;;;;;;;3.60;100.00;102160.34;5071841;28;20086;-89
2022/03/01 05:05:10;;;;;;;5.57;1.70;;;;;;;3.72;100.00;102180.34;5088475;28;20379;-89
2022/03/01 05:07:42;;;;;;;6.70;2.10;;;;;;;3.65;100.00;102157.78;5089757;28;20048;-89
2022/03/01 05:10:12;;;;;;;5.80;1.85;;;;;;;3.86;100.00;102163.28;5087825;28;20044;-90
2022/03/01 05:12:48;;;;;;;3.72;1.50;;;;;;;4.44;100.00;102199.38;5083290;28;20055;-90
2022/03/01 05:15:16;;;;;;;8.70;1.55;;;;;;;4.38;100.00;102192.41;5094433;28;20496;-90
2022/03/01 05:17:44;;;;;;;6.65;1.65;;;;;;;4.43;100.00;102208.03;5093499;28;20059;-90
2022/03/01 05:20:13;;;;;;;14.77;2.25;;;;;;;4.22;100.00;102210.38;5094417;28;20613;-89
2022/03/01 05:22:40;;;;;;;6.55;1.80;;;;;;;4.38;100.00;102217.50;5094092;28;20409;-89
2022/03/01 05:25:09;;;;;;;8.43;2.25;;;;;;;4.13;100.00;102186.06;5093283;28;20458;-89
2022/03/01 05:27:37;;;;;;;7.22;1.58;;;;;;;4.10;100.00;102224.06;5093337;28;20049;-90
2022/03/01 05:30:07;;;;;;;5.93;1.65;;;;;;;3.83;100.00;102216.78;5110002;28;20397;-90
2022/03/01 05:32:34;;;;;;;6.70;1.70;;;;;;;4.09;100.00;102230.97;5073309;28;20050;-91
2022/03/01 05:35:02;;;;;;;5.28;1.60;;;;;;;3.89;100.00;102242.78;5093903;28;20413;-91
2022/03/01 05:37:30;;;;;;;3.70;1.48;;;;;;;3.81;100.00;102221.94;5095328;28;20054;-91
2022/03/01 05:39:57;;;;;;;9.02;1.85;;;;;;;3.91;100.00;102225.53;5093094;28;20052;-91
2022/03/01 05:42:24;;;;;;;12.93;2.05;;;;;;;3.40;100.00;102228.25;5093828;28;20078;-91
2022/03/01 05:44:51;;;;;;;9.50;2.05;;;;;;;3.46;100.00;102235.22;5093514;28;20056;-91
2022/03/01 05:47:18;;;;;;;7.18;2.35;;;;;;;3.36;100.00;102257.50;5093299;28;20051;-91
2022/03/01 05:49:44;;;;;;;6.55;1.90;;;;;;;3.45;100.00;102217.94;5093468;28;20048;-91
2022/03/01 05:52:11;;;;;;;6.05;1.70;;;;;;;3.56;100.00;102211.22;5093333;28;20055;-91
2022/03/01 05:54:38;;;;;;;9.57;1.67;;;;;;;3.70;100.00;102223.50;5111211;28;20394;-91
2022/03/01 05:57:05;;;;;;;5.25;1.63;;;;;;;3.48;100.00;102197.28;5089680;28;20182;-91
2022/03/01 05:59:37;;;;;;;6.65;1.58;;;;;;;3.62;100.00;102236.34;5089706;28;20048;-91
2022/03/01 06:02:04;;;;;;;6.75;1.58;;;;;;;3.16;100.00;102191.59;5093398;28;20050;-91
2022/03/01 06:04:31;;;;;;;6.32;1.80;;;;;;;3.41;100.00;102208.38;5094325;28;20056;-91
2022/03/01 06:06:58;;;;;;;5.35;1.60;;;;;;;3.80;100.00;102249.56;5094640;28;20138;-91
2022/03/01 06:09:25;;;;;;;8.00;2.65;;;;;;;3.72;100.00;102188.09;5092449;28;20052;-90
2022/03/01 06:11:51;;;;;;;5.43;1.80;;;;;;;4.09;100.00;102248.22;5092234;28;20083;-91
2022/03/01 06:14:18;;;;;;;5.22;1.70;;;;;;;3.92;100.00;102228.13;5092918;28;20044;-91
2022/03/01 06:16:45;;;;;;;5.65;1.60;;;;;;;4.17;100.00;102238.84;5092543;28;20040;-91
2022/03/01 06:19:12;;;;;;;5.05;1.52;;;;;;;3.77;100.00;102173.50;5092417;28;20878;-90
2022/03/01 06:21:39;;;;;;;9.85;2.20;;;;;;;4.10;100.00;102226.66;5091255;28;20048;-91
2022/03/01 06:24:06;;;;;;;6.00;1.67;;;;;;;3.85;100.00;102191.75;5094075;28;20058;-90
2022/03/01 06:26:34;;;;;;;6.63;1.58;;;;;;;4.07;100.00;102229.19;5093519;28;20044;-91
2022/03/01 06:29:01;;;;;;;8.02;2.55;;;;;;;4.03;100.00;102222.22;5092684;28;20551;-91
2022/03/01 06:31:28;;;;;;;8.75;2.13;;;;;;;3.99;100.00;102219.59;5091326;28;20048;-88
2022/03/01 06:33:56;;;;;;;9.45;1.92;;;;;;;4.50;100.00;102268.66;5091877;28;20055;-90
2022/03/01 06:36:24;;;;;;;9.57;1.50;;;;;;;4.43;100.00;102246.94;5093538;28;20541;-90
2022/03/01 06:38:52;;;;;;;9.82;2.08;;;;;;;4.66;100.00;102267.09;5092147;28;20069;-89
2022/03/01 06:41:19;;;;;;;7.18;2.03;;;;;;;4.96;100.00;102271.75;5090936;28;20752;-90
2022/03/01 06:43:46;;;;;;;8.77;2.05;;;;;;;4.82;100.00;102269.00;5091238;28;20080;-89
2022/03/01 06:46:13;;;;;;;7.05;2.20;;;;;;;4.67;100.00;102290.44;5092384;28;20040;-91
2022/03/01 06:48:43;;;;;;;8.35;2.78;;;;;;;4.67;100.00;102285.25;5092757;28;20142;-86
2022/03/01 06:51:10;;;;;;;17.35;2.28;;;;;;;4.58;99.56;102292.94;5091834;28;20404;-89
2022/03/01 06:53:36;;;;;;;12.02;2.58;;;;;;;3.70;100.00;102290.84;5092339;28;20070;-88
2022/03/01 06:56:04;;;;;;;9.43;2.30;;;;;;;3.98;100.00;102312.88;5091662;28;20052;-87
2022/03/01 06:58:31;;;;;;;8.20;1.92;;;;;;;4.03;100.00;102319.00;5073235;28;20070;-86
2022/03/01 07:01:00;;;;;;;11.05;3.03;;;;;;;3.84;100.00;102311.78;5091020;28;20056;-89
2022/03/01 07:03:28;;;;;;;9.43;2.75;;;;;;;4.07;100.00;102310.44;5091703;28;20048;-85
2022/03/01 07:05:55;;;;;;;12.65;2.10;;;;;;;3.96;100.00;102320.63;5092321;28;20097;-85
2022/03/01 07:08:23;;;;;;;9.15;1.85;;;;;;;4.31;100.00;102315.06;5091400;28;20044;-85
2022/03/01 07:10:50;;;;;;;7.57;2.03;;;;;;;4.40;100.00;102342.84;5090482;28;20721;-85
2022/03/01 07:13:17;;;;;;;8.40;2.78;;;;;;;4.63;100.00;102365.66;5090353;28;20048;-85
2022/03/01 07:15:44;;;;;;;10.02;2.50;;;;;;;4.12;100.00;102354.56;5090078;28;20044;-85
2022/03/01 07:18:11;;;;;;;11.85;2.08;;;;;;;4.58;100.00;102370.75;5090881;28;20059;-85
2022/03/01 07:20:38;;;;;;;10.73;2.20;;;;;;;4.09;100.00;102334.66;5089944;28;20050;-84
2022/03/01 07:23:05;;;;;;;7.65;2.00;;;;;;;4.36;100.00;102352.31;5090823;28;20050;-83
2022/03/01 07:25:32;;;;;;;7.43;1.70;;;;;;;4.16;100.00;102375.38;5090098;28;20044;-85
2022/03/01 07:27:59;;;;;;;10.02;2.40;;;;;;;4.03;100.00;102372.56;5090570;28;20409;-85
2022/03/01 07:30:27;;;;;;;5.78;2.15;;;;;;;4.09;100.00;102380.41;5090987;28;20070;-85
2022/03/01 07:33:01;;;;;;;7.93;2.00;;;;;;;4.35;100.00;102388.59;5090819;28;20404;-86
2022/03/01 07:35:29;;;;;;;5.28;1.70;;;;;;;4.46;100.00;102392.25;5090572;28;20051;-85
2022/03/01 07:37:56;;;;;;;7.97;2.25;;;;;;;4.37;100.00;102390.38;5089902;28;20042;-85
2022/03/01 07:40:25;;;;;;;10.88;2.38;;;;;;;3.85;100.00;102317.00;5091386;28;20052;-85
2022/03/01 07:42:53;;;;;;;7.53;1.80;;;;;;;4.39;100.00;102392.97;5108231;28;20456;-85
2022/03/01 07:45:20;;;;;;;7.95;3.00;;;;;;;4.33;100.00;102382.53;5091374;28;20058;-85
2022/03/01 07:47:50;;;;;;;7.63;2.47;;;;;;;3.83;100.00;102305.75;5091197;28;20072;-86
2022/03/01 07:50:17;;;;;;;14.70;2.60;;;;;;;3.79;100.00;102329.88;5086685;28;20048;-86
2022/03/01 07:52:44;;;;;;;8.10;2.30;;;;;;;3.78;100.00;102374.75;5092060;28;20048;-85
2022/03/01 07:55:11;;;;;;;10.15;3.45;;;;;;;3.99;100.00;102344.00;5087134;28;20058;-84
2022/03/01 07:57:37;;;;;;;7.63;2.05;;;;;;;4.94;100.00;102390.28;5089583;28;20048;-86
2022/03/01 08:00:06;;;;;;;7.78;2.70;;;;;;;5.52;100.00;102392.63;5090662;28;20051;-85
2022/03/01 08:02:39;;;;;;;16.08;6.13;;;;;;;5.91;100.00;102419.84;5091510;28;20052;-85
2022/03/01 08:05:08;;;;;;;9.10;2.65;;;;;;;6.11;100.00;102420.06;5091064;28;20047;-85
2022/03/01 08:07:47;;;;;;;8.63;2.03;;;;;;;6.53;96.49;102400.38;5087169;28;20054;-85
2022/03/01 08:10:14;;;;;;;7.85;2.20;;;;;;;6.78;90.86;102361.47;5106018;28;20466;-85
2022/03/01 08:12:41;;;;;;;8.38;2.17;;;;;;;6.87;89.14;102347.63;5090336;28;20059;-85
2022/03/01 08:15:09;;;;;;;12.82;2.88;;;;;;;6.90;89.02;102420.53;5090380;28;20124;-85
2022/03/01 08:17:36;;;;;;;7.55;2.30;;;;;;;7.02;89.11;102425.81;5089420;28;20707;-85
2022/03/01 08:20:04;;;;;;;9.27;2.60;;;;;;;7.21;85.15;102419.81;5086464;28;20093;-85
2022/03/01 08:22:30;;;;;;;8.63;2.08;;;;;;;7.52;85.89;102416.41;5089030;28;20048;-85
2022/03/01 08:24:57;;;;;;;7.60;2.33;;;;;;;7.66;86.39;102421.66;5088404;28;20051;-85
2022/03/01 08:27:24;;;;;;;9.88;2.10;;;;;;;7.64;82.53;102374.72;5076030;28;20045;-85
2022/03/01 08:29:52;;;;;;;10.60;2.05;;;;;;;7.84;82.09;102419.03;5090000;28;20414;-86
2022/03/01 08:32:19;;;;;;;7.25;2.28;;;;;;;7.92;79.71;102393.00;5090836;28;20074;-86
2022/03/01 08:34:46;;;;;;;4.93;1.52;;;;;;;8.33;77.47;102390.31;5086614;28;20778;-85
2022/03/01 08:37:13;;;;;;;8.73;1.50;;;;;;;8.12;75.49;102356.44;5086724;28;20050;-85
2022/03/01 08:39:40;;;;;;;10.95;2.58;;;;;;;8.50;74.40;102385.13;5089345;28;20465;-84
2022/03/01 08:42:06;;;;;;;6.80;2.05;;;;;;;8.18;75.53;102392.97;5077107;28;20815;-85
2022/03/01 08:44:33;;;;;;;8.10;1.95;;;;;;;8.81;75.47;102452.06;5089205;28;20044;-85
2022/03/01 08:47:00;;;;;;;7.60;1.77;;;;;;;8.87;72.94;102420.69;5091534;28;20052;-85
2022/03/01 08:49:27;;;;;;;6.28;1.98;;;;;;;8.85;71.72;102436.38;5109939;28;20064;-85
2022/03/01 08:51:54;;;;;;;10.88;1.98;;;;;;;9.35;71.05;102413.50;5093964;28;20058;-85
2022/03/01 08:54:22;;;;;;;5.68;1.58;;;;;;;9.66;71.15;102442.94;5093467;28;20059;-85
2022/03/01 08:56:50;;;;;;;7.95;1.60;;;;;;;9.54;70.51;102443.00;5092414;28;20052;-85
2022/03/01 08:59:17;;;;;;;8.00;1.75;;;;;;;9.82;69.61;102461.16;5088704;28;20056;-84
2022/03/01 09:01:45;;;;;;;8.43;2.00;;;;;;;9.74;69.86;102452.47;5092252;28;20054;-84
2022/03/01 09:04:12;;;;;;;5.60;1.60;;;;;;;9.62;69.14;102450.81;5082815;28;20055;-84
2022/03/01 09:06:39;;;;;;;7.55;2.22;;;;;;;9.63;68.53;102450.81;5091367;28;20497;-85
2022/03/01 09:09:06;;;;;;;8.07;2.22;;;;;;;9.83;72.29;102461.13;5092327;28;20050;-85
2022/03/01 09:11:33;;;;;;;9.57;2.63;;;;;;;8.73;72.22;102447.72;5075609;28;20052;-84
2022/03/01 09:14:00;;;;;;;8.57;2.38;;;;;;;9.26;69.79;102411.81;5073760;28;20135;-87
2022/03/01 09:16:26;;;;;;;15.80;4.47;;;;;;;8.99;69.97;102438.06;5091009;28;20139;-87
2022/03/01 09:18:53;;;;;;;17.00;4.57;;;;;;;8.70;70.36;102431.19;5086499;28;20048;-88
2022/03/01 09:21:20;;;;;;;15.75;3.33;;;;;;;8.99;69.45;102396.25;5109259;28;20050;-87
2022/03/01 09:23:47;;;;;;;10.25;2.45;;;;;;;9.27;70.05;102459.72;5093263;28;20044;-88
2022/03/01 09:26:15;;;;;;;10.70;2.88;;;;;;;9.18;69.66;102460.63;5084925;28;20048;-88
2022/03/01 09:28:42;;;;;;;10.45;3.05;;;;;;;8.70;70.17;102428.56;5092951;28;20073;-85
2022/03/01 09:31:10;;;;;;;12.73;2.78;;;;;;;9.70;71.24;102469.94;5092956;28;20039;-86
2022/03/01 09:33:42;;;;;;;12.07;4.13;;;;;;;9.17;69.72;102452.78;5093131;28;20059;-85
2022/03/01 09:36:11;;;;;;;13.88;3.03;;;;;;;9.63;70.22;102465.63;5080632;28;20131;-85
2022/03/01 09:38:38;;;;;;;14.18;3.63;;;;;;;9.83;69.02;102463.75;5088698;28;20386;-84
2022/03/01 09:41:05;;;;;;;7.85;2.35;;;;;;;9.77;68.63;102435.00;5081643;28;20405;-86
2022/03/01 09:43:37;;;;;;;14.45;3.35;;;;;;;10.02;69.06;102476.69;5072126;28;20060;-85
2022/03/01 09:46:09;;;;;;;8.80;3.03;;;;;;;10.25;67.97;102480.03;5072743;28;20048;-85
2022/03/01 09:48:37;;;;;;;6.82;2.13;;;;;;;10.49;67.79;102472.00;5074684;28;20508;-86
2022/03/01 09:51:06;;;;;;;10.70;2.60;;;;;;;10.24;68.61;102461.69;5090767;28;20040;-85
2022/03/01 09:53:35;;;;;;;11.45;3.15;;;;;;;10.28;67.44;102479.09;5093146;28;20109;-85
2022/03/01 09:56:04;;;;;;;10.90;2.92;;;;;;;9.89;68.51;102468.06;5091737;28;20055;-84
2022/03/01 09:58:31;;;;;;;10.02;3.08;;;;;;;10.39;68.70;102447.63;5090709;28;20405;-86
2022/03/01 10:00:58;;;;;;;13.80;2.92;;;;;;;10.62;68.60;102486.69;5090786;28;20044;-85
2022/03/01 10:03:28;;;;;;;17.40;4.60;;;;;;;9.81;68.55;102483.84;5092431;28;20047;-85
2022/03/01 10:06:15;;;;;;;14.43;4.63;;;;;;;9.92;69.36;102469.81;5092236;28;20070;-85
2022/03/01 10:08:42;;;;;;;13.27;4.18;;;;;;;10.13;69.98;102474.00;5091981;28;20048;-84
2022/03/01 10:11:10;;;;;;;15.30;5.32;;;;;;;10.19;70.98;102489.66;5107755;28;20054;-84
2022/03/01 10:13:40;;;;;;;11.00;2.65;;;;;;;10.80;68.86;102483.00;5109046;28;20048;-86
2022/03/01 10:16:15;;;;;;;10.93;2.13;;;;;;;11.03;66.47;102490.66;5092369;28;20498;-85
2022/03/01 10:18:55;;;;;;;9.25;2.45;;;;;;;11.16;64.32;102460.75;5091937;28;20478;-84
2022/03/01 10:21:24;;;;;;;10.82;1.83;;;;;;;11.10;63.99;102460.84;5091779;28;20056;-84
2022/03/01 10:23:53;;;;;;;11.93;2.58;;;;;;;11.42;65.07;102482.28;5092982;28;20119;-84
2022/03/01 10:26:30;;;;;;;17.27;2.47;;;;;;;10.87;63.96;102487.31;5091835;28;20518;-84
2022/03/01 10:28:59;;;;;;;7.80;1.73;;;;;;;10.98;65.19;102497.69;5092019;28;20529;-84
2022/03/01 10:31:33;;;;;;;9.32;1.70;;;;;;;11.58;63.89;102479.44;5089566;28;20050;-85
2022/03/01 10:34:09;;;;;;;9.15;1.90;;;;;;;11.71;63.42;102480.13;5090439;28;20052;-84
2022/03/01 10:36:44;;;;;;;14.98;2.50;;;;;;;11.49;62.88;102489.19;5090975;28;20086;-85
2022/03/01 10:39:17;;;;;;;5.40;1.60;;;;;;;12.00;61.87;102499.00;5091313;28;20044;-85
2022/03/01 10:41:49;;;;;;;6.35;1.58;;;;;;;12.26;60.49;102490.69;5074814;28;20052;-85
2022/03/01 10:44:18;;;;;;;10.68;1.88;;;;;;;12.18;61.55;102493.44;5077420;28;20043;-85
2022/03/01 10:46:51;;;;;;;10.63;2.72;;;;;;;12.05;61.13;102494.53;5092498;28;20048;-84
2022/03/01 10:49:25;;;;;;;8.95;1.80;;;;;;;12.44;59.90;102502.66;5071383;28;20051;-85
2022/03/01 10:52:06;;;;;;;6.82;1.65;;;;;;;12.06;58.86;102504.16;5088748;28;20721;-84
2022/03/01 10:54:34;;;;;;;8.43;1.73;;;;;;;12.34;58.40;102512.44;5091123;28;20683;-85
2022/03/01 10:57:06;;;;;;;9.73;1.75;;;;;;;12.01;58.77;102522.59;5107185;28;20414;-85
2022/03/01 10:59:35;;;;;;;10.00;1.83;;;;;;;12.13;59.78;102509.28;5091828;28;20052;-85
2022/03/01 11:02:03;;;;;;;10.75;1.73;;;;;;;11.98;59.30;102516.53;5090402;28;20054;-85
2022/03/01 11:04:31;;;;;;;8.73;1.90;;;;;;;12.19;58.81;102508.31;5092823;28;20109;-85
2022/03/01 11:07:04;;;;;;;5.03;1.80;;;;;;;12.18;59.69;102524.09;5090809;28;20044;-85
2022/03/01 11:09:32;;;;;;;12.40;2.38;;;;;;;12.42;59.30;102517.56;5070078;28;20141;-85
2022/03/01 11:12:01;;;;;;;15.48;1.85;;;;;;;12.69;58.58;102500.44;5086853;28;20436;-85
2022/03/01 11:14:30;;;;;;;6.20;1.48;;;;;;;12.15;60.11;102518.00;5107446;28;20083;-83
2022/03/01 11:17:03;;;;;;;10.68;1.92;;;;;;;11.96;60.57;102516.53;5107109;28;20044;-84
2022/03/01 11:20:04;;;;;;;9.18;2.13;;;;;;;12.14;58.63;102518.00;5082918;28;20047;-85
2022/03/01 11:22:48;;;;;;;7.22;1.58;;;;;;;12.72;59.16;102513.53;5087826;28;20505;-85
2022/03/01 11:25:16;;;;;;;11.98;1.88;;;;;;;12.58;58.69;102507.66;5092790;28;20130;-92
2022/03/01 11:27:45;;;;;;;7.10;1.88;;;;;;;12.66;58.84;102513.63;5087773;28;20140;-92